createdAt,value
2019-03-09T00:01:31.968Z,7.80
2019-03-09T00:04:00.249Z,12.27
2019-03-09T00:06:28.547Z,9.97
2019-03-09T00:08:56.752Z,9.23
2019-03-09T00:11:24.869Z,9.50
2019-03-09T00:13:53.072Z,8.03
2019-03-09T00:16:21.275Z,8.77
2019-03-09T00:18:49.589Z,11.23
2019-03-09T00:21:17.671Z,7.73
2019-03-09T00:24:14.115Z,11.43
2019-03-09T00:27:05.005Z,8.30
2019-03-09T00:29:39.245Z,12.63
2019-03-09T00:32:10.238Z,12.57
2019-03-09T00:34:38.718Z,12.53
2019-03-09T00:37:06.818Z,14.13
2019-03-09T00:39:34.982Z,11.10
2019-03-09T00:42:03.129Z,12.30
2019-03-09T00:44:31.249Z,13.23
2019-03-09T00:46:59.318Z,12.67
2019-03-09T00:49:27.659Z,12.07
2019-03-09T00:51:55.724Z,11.17
2019-03-09T00:54:23.845Z,11.03
2019-03-09T00:56:52.011Z,8.53
2019-03-09T00:59:20.206Z,8.73
2019-03-09T01:01:48.267Z,12.23
2019-03-09T01:04:16.661Z,10.83
2019-03-09T01:06:44.862Z,9.27
2019-03-09T01:09:13.130Z,9.67
2019-03-09T01:11:41.577Z,11.67
2019-03-09T01:14:09.644Z,10.83
2019-03-09T01:16:37.748Z,12.23
2019-03-09T01:19:05.793Z,7.23
2019-03-09T01:21:33.892Z,9.53
2019-03-09T01:24:02.821Z,12.07
2019-03-09T01:26:30.996Z,8.10
2019-03-09T01:28:59.091Z,8.10
2019-03-09T01:31:27.407Z,8.83
2019-03-09T01:33:55.531Z,6.73
2019-03-09T01:36:23.608Z,10.30
2019-03-09T01:38:51.681Z,15.67
2019-03-09T01:41:19.784Z,12.57
2019-03-09T01:43:47.859Z,10.63
2019-03-09T01:46:16.106Z,13.07
2019-03-09T01:48:44.194Z,11.90
2019-03-09T01:51:12.306Z,10.10
2019-03-09T01:53:40.403Z,11.10
2019-03-09T01:56:08.505Z,12.57
2019-03-09T01:58:37.202Z,7.70
2019-03-09T02:01:05.278Z,11.00
2019-03-09T02:03:33.394Z,8.60
2019-03-09T02:06:01.566Z,9.60
2019-03-09T02:08:29.765Z,7.23
2019-03-09T02:10:57.925Z,11.20
2019-03-09T02:13:26.022Z,8.83
2019-03-09T02:15:54.117Z,10.10
2019-03-09T02:18:22.170Z,9.73
2019-03-09T02:20:51.173Z,11.13
2019-03-09T02:23:19.258Z,6.83
2019-03-09T02:25:47.355Z,5.87
2019-03-09T02:28:15.412Z,7.87
2019-03-09T02:30:43.563Z,8.27
2019-03-09T02:33:11.624Z,8.50
2019-03-09T02:35:39.685Z,9.10
2019-03-09T02:38:15.546Z,7.77
2019-03-09T02:40:43.603Z,9.77
2019-03-09T02:43:11.780Z,9.33
2019-03-09T02:45:39.994Z,9.53
2019-03-09T02:48:08.138Z,8.80
2019-03-09T02:50:38.070Z,7.73
2019-03-09T02:53:06.163Z,6.27
2019-03-09T02:55:34.384Z,7.57
2019-03-09T02:58:03.781Z,6.47
2019-03-09T03:00:38.465Z,8.20
2019-03-09T03:03:06.574Z,6.97
2019-03-09T03:05:34.647Z,8.73
2019-03-09T03:08:02.737Z,9.47
2019-03-09T03:10:30.931Z,6.90
2019-03-09T03:12:59.000Z,8.53
2019-03-09T03:15:31.111Z,8.03
2019-03-09T03:17:59.227Z,9.03
2019-03-09T03:20:27.344Z,7.50
2019-03-09T03:22:55.434Z,6.97
2019-03-09T03:25:24.913Z,5.27
2019-03-09T03:27:53.097Z,7.63
2019-03-09T03:30:21.176Z,6.97
2019-03-09T03:32:49.470Z,7.97
2019-03-09T03:35:17.611Z,6.83
2019-03-09T03:37:45.694Z,7.93
2019-03-09T03:40:35.108Z,7.73
2019-03-09T03:43:03.175Z,8.53
2019-03-09T03:45:31.256Z,9.33
2019-03-09T03:47:59.344Z,8.63
2019-03-09T03:50:27.735Z,9.43
2019-03-09T03:52:55.796Z,8.50
2019-03-09T03:55:23.872Z,6.80
2019-03-09T03:57:51.982Z,8.33
2019-03-09T04:00:21.080Z,8.93
2019-03-09T04:02:49.137Z,9.20
2019-03-09T04:05:17.232Z,9.20
2019-03-09T04:07:45.526Z,7.47
2019-03-09T04:10:14.041Z,9.53
2019-03-09T04:12:42.286Z,8.43
2019-03-09T04:15:10.710Z,10.27
2019-03-09T04:17:38.772Z,9.47
2019-03-09T04:20:07.618Z,8.37
2019-03-09T04:22:35.683Z,7.17
2019-03-09T04:25:03.877Z,6.37
2019-03-09T04:27:32.372Z,9.53
2019-03-09T04:30:00.548Z,7.70
2019-03-09T04:32:28.677Z,8.20
2019-03-09T04:34:56.774Z,6.77
2019-03-09T04:37:24.833Z,8.80
2019-03-09T04:39:52.966Z,11.50
2019-03-09T04:42:21.009Z,8.43
2019-03-09T04:44:49.386Z,8.03
2019-03-09T04:47:17.508Z,8.93
2019-03-09T04:49:45.564Z,10.97
2019-03-09T04:52:13.688Z,11.60
2019-03-09T04:54:41.750Z,12.33
2019-03-09T04:57:09.839Z,9.73
2019-03-09T04:59:37.905Z,11.93
2019-03-09T05:02:06.182Z,11.93
2019-03-09T05:04:41.453Z,10.57
2019-03-09T05:07:09.684Z,11.50
2019-03-09T05:09:48.907Z,12.53
2019-03-09T05:12:17.026Z,10.40
2019-03-09T05:14:45.094Z,13.07
2019-03-09T05:17:13.633Z,13.87
2019-03-09T05:19:42.099Z,10.87
2019-03-09T05:22:10.180Z,11.33
2019-03-09T05:24:38.299Z,13.63
2019-03-09T05:27:06.463Z,9.43
2019-03-09T05:29:34.578Z,13.57
2019-03-09T05:32:04.506Z,18.70
2019-03-09T05:34:33.642Z,13.33
2019-03-09T05:37:01.742Z,14.70
2019-03-09T05:39:30.181Z,10.00
2019-03-09T05:41:58.377Z,10.33
2019-03-09T05:44:26.517Z,15.33
2019-03-09T05:46:54.578Z,19.10
2019-03-09T05:49:22.664Z,8.90
2019-03-09T05:52:09.075Z,9.37
2019-03-09T05:54:37.157Z,13.13
2019-03-09T05:57:05.276Z,18.07
2019-03-09T05:59:33.397Z,11.43
2019-03-09T06:02:02.059Z,10.37
2019-03-09T06:04:30.219Z,13.43
2019-03-09T06:06:58.278Z,14.23
2019-03-09T06:09:26.347Z,9.77
2019-03-09T06:11:54.505Z,10.37
2019-03-09T06:14:22.577Z,14.37
2019-03-09T06:16:50.676Z,13.53
2019-03-09T06:19:18.909Z,13.33
2019-03-09T06:21:47.096Z,16.93
2019-03-09T06:24:15.163Z,12.40
2019-03-09T06:26:43.235Z,11.67
2019-03-09T06:29:11.354Z,14.83
2019-03-09T06:31:39.565Z,12.47
2019-03-09T06:34:07.623Z,14.37
2019-03-09T06:37:02.509Z,15.60
2019-03-09T06:39:31.762Z,17.33
2019-03-09T06:42:19.055Z,12.60
2019-03-09T06:44:47.249Z,12.30
2019-03-09T06:47:15.299Z,11.10
2019-03-09T06:49:43.516Z,11.73
2019-03-09T06:52:11.618Z,10.40
2019-03-09T06:54:39.751Z,11.97
2019-03-09T06:57:13.788Z,11.83
2019-03-09T06:59:37.591Z,12.70
2019-03-09T07:02:05.965Z,13.27
2019-03-09T07:04:34.116Z,8.77
2019-03-09T07:07:02.241Z,10.53
2019-03-09T07:09:30.335Z,10.73
2019-03-09T07:11:58.424Z,13.10
2019-03-09T07:14:44.367Z,11.40
2019-03-09T07:17:12.450Z,10.83
2019-03-09T07:19:40.547Z,10.03
2019-03-09T07:22:08.664Z,11.13
2019-03-09T07:24:36.791Z,10.73
2019-03-09T07:27:05.065Z,15.47
2019-03-09T07:29:33.207Z,8.33
2019-03-09T07:32:02.474Z,5.17
2019-03-09T07:34:30.554Z,12.13
2019-03-09T07:36:58.889Z,9.37
2019-03-09T07:39:26.961Z,12.10
2019-03-09T07:41:55.064Z,9.23
2019-03-09T07:44:23.124Z,11.37
2019-03-09T07:46:51.201Z,14.03
2019-03-09T07:49:19.290Z,8.83
2019-03-09T07:51:47.404Z,8.07
2019-03-09T07:54:15.907Z,12.43
2019-03-09T07:56:43.973Z,14.57
2019-03-09T07:59:12.048Z,11.23
2019-03-09T08:01:40.202Z,7.67
2019-03-09T08:04:08.271Z,13.50
2019-03-09T08:06:36.388Z,11.77
2019-03-09T08:09:05.241Z,8.30
2019-03-09T08:11:33.331Z,7.57
2019-03-09T08:14:01.606Z,12.47
2019-03-09T08:16:35.886Z,14.60
2019-03-09T08:18:59.637Z,9.67
2019-03-09T08:21:27.735Z,9.10
2019-03-09T08:23:56.607Z,10.43
2019-03-09T08:26:24.634Z,9.83
2019-03-09T08:28:52.740Z,9.23
2019-03-09T08:31:20.806Z,10.10
2019-03-09T08:33:48.993Z,9.97
2019-03-09T08:36:17.158Z,12.43
2019-03-09T08:38:45.208Z,10.30
2019-03-09T08:41:13.387Z,11.10
2019-03-09T08:43:41.530Z,10.43
2019-03-09T08:46:09.814Z,11.47
2019-03-09T08:48:37.864Z,9.97
2019-03-09T08:51:05.970Z,12.37
2019-03-09T08:53:34.045Z,16.57
2019-03-09T08:56:02.542Z,13.03
2019-03-09T08:58:30.937Z,10.97
2019-03-09T09:00:59.070Z,10.13
2019-03-09T09:03:27.152Z,12.77
2019-03-09T09:05:55.449Z,10.73
2019-03-09T09:08:23.546Z,12.30
2019-03-09T09:10:51.624Z,11.00
2019-03-09T09:13:19.727Z,9.50
2019-03-09T09:15:47.916Z,11.67
2019-03-09T09:18:16.072Z,12.07
2019-03-09T09:20:44.290Z,15.67
2019-03-09T09:23:12.620Z,12.77
2019-03-09T09:25:40.758Z,12.90
2019-03-09T09:28:08.845Z,19.37
2019-03-09T09:30:37.076Z,17.97
2019-03-09T09:33:05.193Z,10.23
2019-03-09T09:35:33.367Z,13.97
2019-03-09T09:38:01.487Z,14.93
2019-03-09T09:40:29.645Z,12.63
2019-03-09T09:42:57.716Z,15.33
2019-03-09T09:45:25.878Z,15.70
2019-03-09T09:47:54.019Z,12.67
2019-03-09T09:50:22.359Z,14.07
2019-03-09T09:52:50.406Z,16.20
2019-03-09T09:55:18.572Z,13.70
2019-03-09T09:57:46.823Z,14.57
2019-03-09T10:00:16.161Z,11.27
2019-03-09T10:02:44.227Z,15.50
2019-03-09T10:05:12.378Z,15.63
2019-03-09T10:07:40.568Z,13.47
2019-03-09T10:10:09.650Z,19.33
2019-03-09T10:12:37.793Z,14.97
2019-03-09T10:15:07.500Z,17.27
2019-03-09T10:17:35.574Z,13.33
2019-03-09T10:20:03.817Z,16.07
2019-03-09T10:22:31.896Z,12.87
2019-03-09T10:25:00.060Z,14.73
2019-03-09T10:27:28.370Z,17.43
2019-03-09T10:29:56.446Z,15.37
2019-03-09T10:32:24.633Z,17.03
2019-03-09T10:34:52.743Z,13.23
2019-03-09T10:37:20.868Z,9.40
2019-03-09T10:39:49.061Z,14.63
2019-03-09T10:42:17.176Z,12.90
2019-03-09T10:44:45.270Z,15.17
2019-03-09T10:47:13.490Z,11.73
2019-03-09T10:49:41.607Z,11.87
2019-03-09T10:52:09.698Z,11.90
2019-03-09T10:54:37.827Z,14.10
2019-03-09T10:57:05.998Z,13.37
2019-03-09T10:59:34.131Z,13.30
2019-03-09T11:02:02.567Z,10.83
2019-03-09T11:04:30.759Z,12.87
2019-03-09T11:06:58.950Z,16.57
2019-03-09T11:09:30.059Z,14.93
2019-03-09T11:12:00.469Z,11.97
2019-03-09T11:14:28.531Z,15.67
2019-03-09T11:16:56.636Z,11.90
2019-03-09T11:19:24.807Z,12.03
2019-03-09T11:21:52.920Z,10.70
2019-03-09T11:24:21.107Z,10.10
2019-03-09T11:26:49.207Z,15.13
2019-03-09T11:29:17.320Z,10.90
2019-03-09T11:31:45.607Z,14.80
2019-03-09T11:34:13.724Z,15.17
2019-03-09T11:36:41.809Z,15.43
2019-03-09T11:39:09.933Z,14.53
2019-03-09T11:41:38.043Z,13.83
2019-03-09T11:44:06.152Z,10.77
2019-03-09T11:46:34.220Z,8.27
2019-03-09T11:49:02.325Z,10.40
2019-03-09T11:51:30.465Z,10.80
2019-03-09T11:53:58.536Z,11.13
2019-03-09T11:56:26.712Z,6.07
2019-03-09T11:58:54.860Z,11.73
2019-03-09T12:01:22.966Z,12.77
2019-03-09T12:03:51.200Z,15.17
2019-03-09T12:06:19.279Z,14.33
2019-03-09T12:08:47.536Z,14.67
2019-03-09T12:11:15.679Z,10.33
2019-03-09T12:13:43.769Z,8.43
2019-03-09T12:16:11.881Z,12.07
2019-03-09T12:18:39.968Z,11.73
2019-03-09T12:21:08.046Z,13.37
2019-03-09T12:23:36.814Z,10.27
2019-03-09T12:26:04.885Z,8.13
2019-03-09T12:28:33.136Z,13.33
2019-03-09T12:31:01.205Z,11.40
2019-03-09T12:33:29.293Z,11.80
2019-03-09T12:35:57.443Z,11.20
2019-03-09T12:38:25.521Z,9.40
2019-03-09T12:40:53.633Z,17.33
2019-03-09T12:43:21.818Z,9.60
2019-03-09T12:45:50.036Z,11.57
2019-03-09T12:48:18.115Z,10.80
2019-03-09T12:50:46.343Z,11.50
2019-03-09T12:53:14.704Z,10.93
2019-03-09T12:55:42.850Z,10.33
2019-03-09T12:58:11.210Z,10.93
2019-03-09T13:00:39.305Z,9.90
2019-03-09T13:03:08.405Z,11.07
2019-03-09T13:05:36.598Z,12.13
2019-03-09T13:08:04.748Z,12.97
2019-03-09T13:10:32.863Z,12.40
2019-03-09T13:13:00.955Z,15.03
2019-03-09T13:15:30.085Z,13.30
2019-03-09T13:17:58.177Z,8.80
2019-03-09T13:20:26.328Z,15.70
2019-03-09T13:22:54.561Z,12.13
2019-03-09T13:25:22.667Z,11.27
2019-03-09T13:27:50.737Z,6.93
2019-03-09T13:30:21.170Z,9.63
2019-03-09T13:32:49.262Z,8.97
2019-03-09T13:35:17.370Z,11.17
2019-03-09T13:37:45.685Z,10.73
2019-03-09T13:40:16.328Z,9.80
2019-03-09T13:42:44.571Z,9.33
2019-03-09T13:45:12.869Z,11.57
2019-03-09T13:47:40.985Z,11.43
2019-03-09T13:50:09.422Z,12.07
2019-03-09T13:52:37.510Z,9.30
2019-03-09T13:55:05.881Z,10.90
2019-03-09T13:57:33.995Z,15.57
2019-03-09T14:00:02.096Z,12.13
2019-03-09T14:02:30.212Z,11.27
2019-03-09T14:04:58.282Z,19.90
2019-03-09T14:07:26.366Z,11.43
2019-03-09T14:09:54.490Z,14.93
2019-03-09T14:12:22.628Z,13.97
2019-03-09T14:14:50.697Z,10.13
2019-03-09T14:17:18.817Z,6.40
2019-03-09T14:19:46.945Z,8.17
2019-03-09T14:22:15.060Z,9.13
2019-03-09T14:24:43.167Z,10.70
2019-03-09T14:27:11.236Z,7.97
2019-03-09T14:29:39.399Z,7.40
2019-03-09T14:32:07.513Z,9.47
2019-03-09T14:34:35.642Z,9.03
2019-03-09T14:37:03.730Z,11.60
2019-03-09T14:39:31.795Z,7.47
2019-03-09T14:42:01.976Z,14.27
2019-03-09T14:44:30.061Z,14.47
2019-03-09T14:46:58.183Z,20.67
2019-03-09T14:49:26.404Z,15.23
2019-03-09T14:51:54.555Z,19.77
2019-03-09T14:54:22.638Z,23.10
2019-03-09T14:56:50.840Z,24.23
2019-03-09T14:59:19.068Z,10.03
2019-03-09T15:01:47.479Z,8.53
2019-03-09T15:04:15.606Z,8.53
2019-03-09T15:06:43.690Z,5.23
2019-03-09T15:09:11.797Z,4.67
2019-03-09T15:11:39.863Z,7.27
2019-03-09T15:14:08.075Z,6.77
2019-03-09T15:16:36.203Z,8.63
2019-03-09T15:19:06.050Z,5.73
2019-03-09T15:21:34.155Z,10.40
2019-03-09T15:24:02.226Z,3.53
2019-03-09T15:26:30.316Z,5.13
2019-03-09T15:28:58.423Z,3.90
2019-03-09T15:31:26.561Z,4.00
2019-03-09T15:33:54.777Z,4.90
2019-03-09T15:36:22.988Z,6.80
2019-03-09T15:38:51.074Z,4.50
2019-03-09T15:41:19.256Z,5.00
2019-03-09T15:43:47.454Z,7.90
2019-03-09T15:46:15.623Z,5.33
2019-03-09T15:48:43.937Z,4.70
2019-03-09T15:51:11.975Z,6.37
2019-03-09T15:53:40.207Z,7.13
2019-03-09T15:56:10.167Z,4.37
2019-03-09T15:58:38.204Z,3.63
2019-03-09T16:01:06.304Z,6.20
2019-03-09T16:03:34.548Z,7.97
2019-03-09T16:06:02.753Z,11.13
2019-03-09T16:08:30.953Z,5.60
2019-03-09T16:10:59.100Z,10.63
2019-03-09T16:13:27.334Z,6.13
2019-03-09T16:15:55.706Z,6.30
2019-03-09T16:18:23.810Z,6.73
2019-03-09T16:20:52.639Z,10.27
2019-03-09T16:23:20.790Z,12.43
2019-03-09T16:25:48.911Z,6.43
2019-03-09T16:28:16.976Z,9.17
2019-03-09T16:30:45.179Z,11.97
2019-03-09T16:33:13.302Z,10.87
2019-03-09T16:35:41.535Z,10.27
2019-03-09T16:38:09.679Z,10.17
2019-03-09T16:40:40.691Z,13.87
2019-03-09T16:43:07.511Z,9.80
2019-03-09T16:45:35.726Z,7.10
2019-03-09T16:48:03.917Z,6.10
2019-03-09T16:50:32.050Z,8.80
2019-03-09T16:53:00.121Z,10.50
2019-03-09T16:55:28.548Z,7.37
2019-03-09T16:57:58.359Z,8.63
2019-03-09T17:00:26.447Z,6.17
2019-03-09T17:02:55.842Z,4.83
2019-03-09T17:05:23.977Z,3.07
2019-03-09T17:07:52.065Z,4.53
2019-03-09T17:10:20.304Z,5.53
2019-03-09T17:12:48.414Z,2.83
2019-03-09T17:15:16.526Z,4.57
2019-03-09T17:17:44.617Z,4.63
2019-03-09T17:20:13.364Z,6.97
2019-03-09T17:22:41.661Z,7.60
2019-03-09T17:25:09.857Z,3.77
2019-03-09T17:27:37.969Z,8.50
2019-03-09T17:30:06.344Z,5.60
2019-03-09T17:32:34.499Z,3.40
2019-03-09T17:35:02.632Z,6.27
2019-03-09T17:37:31.024Z,9.47
2019-03-09T17:39:59.117Z,5.67
2019-03-09T17:42:27.237Z,4.93
2019-03-09T17:44:55.340Z,2.83
2019-03-09T17:47:23.485Z,4.17
2019-03-09T17:49:51.750Z,7.43
2019-03-09T17:52:19.885Z,4.53
2019-03-09T17:54:48.138Z,3.40
2019-03-09T17:57:16.247Z,5.87
2019-03-09T17:59:44.329Z,5.63
2019-03-09T18:02:12.469Z,8.03
2019-03-09T18:04:41.273Z,4.57
2019-03-09T18:07:09.414Z,9.77
2019-03-09T18:09:37.564Z,3.17
2019-03-09T18:12:05.727Z,6.17
2019-03-09T18:14:33.828Z,9.80
2019-03-09T18:17:02.454Z,8.10
2019-03-09T18:19:30.935Z,7.43
2019-03-09T18:21:59.069Z,9.57
2019-03-09T18:24:27.155Z,5.70
2019-03-09T18:26:55.582Z,6.27
2019-03-09T18:29:23.761Z,9.17
2019-03-09T18:31:52.028Z,8.27
2019-03-09T18:34:20.244Z,4.53
2019-03-09T18:36:48.378Z,9.80
2019-03-09T18:39:16.480Z,9.87
2019-03-09T18:41:44.639Z,8.30
2019-03-09T18:44:12.751Z,7.43
2019-03-09T18:46:41.138Z,10.17
2019-03-09T18:49:09.262Z,8.37
2019-03-09T18:51:37.453Z,12.10
2019-03-09T18:54:05.817Z,7.37
2019-03-09T18:56:33.915Z,13.00
2019-03-09T18:59:04.225Z,8.33
2019-03-09T19:01:33.767Z,8.73
2019-03-09T19:04:02.060Z,11.30
2019-03-09T19:06:30.466Z,12.17
2019-03-09T19:08:59.102Z,9.73
2019-03-09T19:11:27.192Z,9.37
2019-03-09T19:13:55.876Z,8.40
2019-03-09T19:16:24.093Z,13.33
2019-03-09T19:18:52.360Z,11.47
2019-03-09T19:21:20.706Z,13.83
2019-03-09T19:23:48.807Z,9.00
2019-03-09T19:26:16.909Z,11.90
2019-03-09T19:28:45.065Z,12.43
2019-03-09T19:31:13.185Z,10.93
2019-03-09T19:33:41.308Z,15.27
2019-03-09T19:36:09.444Z,13.60
2019-03-09T19:38:37.589Z,16.37
2019-03-09T19:41:05.864Z,12.67
2019-03-09T19:43:34.261Z,14.33
2019-03-09T19:46:02.455Z,11.43
2019-03-09T19:48:30.671Z,15.87
2019-03-09T19:50:59.888Z,8.37
2019-03-09T19:53:28.021Z,9.73
2019-03-09T19:55:56.159Z,10.93
2019-03-09T19:58:24.638Z,13.40
2019-03-09T20:00:52.865Z,12.97
2019-03-09T20:03:21.057Z,16.00
2019-03-09T20:05:49.264Z,18.20
2019-03-09T20:08:17.642Z,10.70
2019-03-09T20:10:45.851Z,12.33
2019-03-09T20:13:14.024Z,16.73
2019-03-09T20:15:42.180Z,14.87
2019-03-09T20:18:10.286Z,16.30
2019-03-09T20:20:38.744Z,15.90
2019-03-09T20:23:06.900Z,17.60
2019-03-09T20:25:35.041Z,14.57
2019-03-09T20:28:03.169Z,13.13
2019-03-09T20:30:31.326Z,16.57
2019-03-09T20:32:59.454Z,12.33
2019-03-09T20:35:27.641Z,14.20
2019-03-09T20:37:56.677Z,12.63
2019-03-09T20:40:24.875Z,14.77
2019-03-09T20:42:54.417Z,16.67
2019-03-09T20:45:24.905Z,8.77
2019-03-09T20:47:53.182Z,18.63
2019-03-09T20:50:21.447Z,16.77
2019-03-09T20:52:49.602Z,15.23
2019-03-09T20:55:17.720Z,18.33
2019-03-09T20:57:47.263Z,15.47
2019-03-09T21:00:16.975Z,14.80
2019-03-09T21:02:45.120Z,13.00
2019-03-09T21:05:13.654Z,13.17
2019-03-09T21:07:41.819Z,13.60
2019-03-09T21:10:10.356Z,12.47
2019-03-09T21:12:40.012Z,13.00
2019-03-09T21:15:08.140Z,13.90
2019-03-09T21:17:37.226Z,10.23
2019-03-09T21:20:05.586Z,12.53
2019-03-09T21:22:33.715Z,13.57
2019-03-09T21:25:04.644Z,13.10
2019-03-09T21:27:32.775Z,14.43
2019-03-09T21:30:00.865Z,13.87
2019-03-09T21:32:28.992Z,14.70
2019-03-09T21:34:57.116Z,13.40
2019-03-09T21:37:26.900Z,12.70
2019-03-09T21:39:55.172Z,17.07
2019-03-09T21:42:23.299Z,12.60
2019-03-09T21:44:51.696Z,13.93
2019-03-09T21:47:20.060Z,14.93
2019-03-09T21:49:49.288Z,12.53
2019-03-09T21:52:17.439Z,14.00
2019-03-09T21:54:45.601Z,12.60
2019-03-09T21:57:13.712Z,10.73
2019-03-09T21:59:41.888Z,13.27
2019-03-09T22:02:10.150Z,12.57
2019-03-09T22:04:38.385Z,15.67
2019-03-09T22:07:06.462Z,16.43
2019-03-09T22:09:34.608Z,12.17
2019-03-09T22:12:02.786Z,15.47
2019-03-09T22:14:31.139Z,18.50
2019-03-09T22:16:59.270Z,13.13
2019-03-09T22:19:27.582Z,14.93
2019-03-09T22:21:55.746Z,16.47
2019-03-09T22:24:23.823Z,12.30
2019-03-09T22:26:51.892Z,14.60
2019-03-09T22:29:20.074Z,18.00
2019-03-09T22:31:48.161Z,12.20
2019-03-09T22:34:16.595Z,13.57
2019-03-09T22:36:44.658Z,16.90
2019-03-09T22:39:12.742Z,20.47
2019-03-09T22:41:40.936Z,17.70
2019-03-09T22:44:09.035Z,16.27
2019-03-09T22:46:37.164Z,10.33
2019-03-09T22:49:05.258Z,10.33
2019-03-09T22:51:33.303Z,11.10
2019-03-09T22:54:03.158Z,13.73
2019-03-09T22:56:31.243Z,10.83
2019-03-09T22:58:59.341Z,16.77
2019-03-09T23:01:27.482Z,13.37
2019-03-09T23:03:55.733Z,14.20
2019-03-09T23:06:23.940Z,13.47
2019-03-09T23:08:52.062Z,22.53
2019-03-09T23:11:20.139Z,20.77
2019-03-09T23:13:48.217Z,13.93
2019-03-09T23:16:16.342Z,11.77
2019-03-09T23:18:44.395Z,11.10
2019-03-09T23:21:13.100Z,14.13
2019-03-09T23:23:41.182Z,17.50
2019-03-09T23:26:09.486Z,18.37
2019-03-09T23:28:44.186Z,17.63
2019-03-09T23:31:12.293Z,13.63
2019-03-09T23:33:40.417Z,14.10
2019-03-09T23:36:08.485Z,15.40
2019-03-09T23:38:36.559Z,13.67
2019-03-09T23:41:04.686Z,14.63
2019-03-09T23:43:32.804Z,16.73
2019-03-09T23:46:02.017Z,16.97
2019-03-09T23:48:30.135Z,12.53
2019-03-09T23:50:58.199Z,18.70
2019-03-09T23:53:26.316Z,12.27
2019-03-09T23:55:54.420Z,12.70
2019-03-09T23:58:22.523Z,7.37
